createdAt,value
2022-08-04T00:00:00.259Z,95350.97
2022-08-04T00:03:04.307Z,95340.72
2022-08-04T00:05:52.469Z,95340.31
2022-08-04T00:08:39.087Z,95349.00
2022-08-04T00:11:09.062Z,95349.41
2022-08-04T00:13:58.043Z,95358.13
2022-08-04T00:16:35.001Z,95343.91
2022-08-04T00:19:10.729Z,95353.00
2022-08-04T00:21:42.328Z,95349.84
2022-08-04T00:24:12.945Z,95355.41
2022-08-04T00:26:41.199Z,95348.69
2022-08-04T00:29:07.924Z,95355.03
2022-08-04T00:31:54.873Z,95360.56
2022-08-04T00:34:27.799Z,95357.41
2022-08-04T00:36:56.267Z,95352.28
2022-08-04T00:39:23.636Z,95352.28
2022-08-04T00:42:09.343Z,95349.91
2022-08-04T00:44:51.851Z,95352.69
2022-08-04T00:47:46.454Z,95343.22
2022-08-04T00:50:22.977Z,95347.56
2022-08-04T00:53:13.243Z,95355.06
2022-08-04T00:56:04.226Z,95357.84
2022-08-04T00:58:33.360Z,95355.09
2022-08-04T01:01:06.963Z,95360.66
2022-08-04T01:03:50.603Z,95357.47
2022-08-04T01:06:28.842Z,95356.72
2022-08-04T01:09:03.600Z,95359.06
2022-08-04T01:11:57.104Z,95361.44
2022-08-04T01:15:12.280Z,95367.38
2022-08-04T01:17:47.422Z,95355.13
2022-08-04T01:20:20.709Z,95348.78
2022-08-04T01:23:12.324Z,95351.16
2022-08-04T01:25:58.887Z,95351.94
2022-08-04T01:29:02.982Z,95356.66
2022-08-04T01:32:21.096Z,95351.91
2022-08-04T01:35:00.776Z,95351.16
2022-08-04T01:37:48.561Z,95357.84
2022-08-04T01:40:16.141Z,95355.88
2022-08-04T01:42:44.445Z,95353.47
2022-08-04T01:45:13.965Z,95349.16
2022-08-04T01:47:42.938Z,95352.69
2022-08-04T01:50:12.130Z,95348.72
2022-08-04T01:52:41.371Z,95349.91
2022-08-04T01:55:10.534Z,95347.13
2022-08-04T01:57:45.783Z,95343.94
2022-08-04T02:00:19.464Z,95344.34
2022-08-04T02:02:47.351Z,95349.06
2022-08-04T02:05:19.044Z,95349.44
2022-08-04T02:07:50.504Z,95347.84
2022-08-04T02:10:27.012Z,95346.22
2022-08-04T02:13:09.845Z,95347.38
2022-08-04T02:15:52.291Z,95343.41
2022-08-04T02:18:24.658Z,95353.28
2022-08-04T02:20:57.973Z,95341.41
2022-08-04T02:23:41.378Z,95346.94
2022-08-04T02:26:22.569Z,95348.47
2022-08-04T02:29:08.392Z,95354.38
2022-08-04T02:31:57.533Z,95351.22
2022-08-04T02:34:34.800Z,95348.47
2022-08-04T02:37:05.083Z,95348.41
2022-08-04T02:39:48.183Z,95350.00
2022-08-04T02:42:16.926Z,95350.34
2022-08-04T02:44:48.889Z,95351.50
2022-08-04T02:47:20.686Z,95344.41
2022-08-04T02:49:50.569Z,95348.31
2022-08-04T02:52:19.756Z,95347.50
2022-08-04T02:54:49.425Z,95342.75
2022-08-04T02:57:18.664Z,95353.38
2022-08-04T03:00:04.711Z,95349.78
2022-08-04T03:02:46.433Z,95347.03
2022-08-04T03:05:25.223Z,95355.25
2022-08-04T03:08:13.000Z,95356.78
2022-08-04T03:10:57.194Z,95346.44
2022-08-04T03:14:05.292Z,95356.72
2022-08-04T03:16:50.984Z,95349.19
2022-08-04T03:19:48.403Z,95341.69
2022-08-04T03:22:33.375Z,95346.78
2022-08-04T03:25:24.179Z,95346.00
2022-08-04T03:28:15.073Z,95352.69
2022-08-04T03:30:59.366Z,95341.63
2022-08-04T03:33:25.843Z,95350.69
2022-08-04T03:36:04.796Z,95341.22
2022-08-04T03:38:59.296Z,95343.97
2022-08-04T03:41:57.316Z,95351.44
2022-08-04T03:44:50.216Z,95345.16
2022-08-04T03:47:24.359Z,95341.59
2022-08-04T03:50:11.539Z,95343.19
2022-08-04T03:53:19.433Z,95343.94
2022-08-04T03:56:17.137Z,95347.47
2022-08-04T03:58:43.643Z,95344.66
2022-08-04T04:01:41.619Z,95338.03
2022-08-04T04:04:40.098Z,95347.88
2022-08-04T04:07:31.210Z,95337.56
2022-08-04T04:10:42.869Z,95347.06
2022-08-04T04:13:21.892Z,95343.94
2022-08-04T04:16:08.868Z,95341.53
2022-08-04T04:18:38.354Z,95347.44
2022-08-04T04:21:07.775Z,95344.28
2022-08-04T04:23:59.699Z,95351.72
2022-08-04T04:26:46.742Z,95366.69
2022-08-04T04:29:33.969Z,95358.81
2022-08-04T04:32:23.316Z,95363.50
2022-08-04T04:35:03.200Z,95357.25
2022-08-04T04:37:48.641Z,95362.75
2022-08-04T04:40:24.596Z,95363.56
2022-08-04T04:43:13.663Z,95368.69
2022-08-04T04:46:03.047Z,95373.03
2022-08-04T04:48:49.380Z,95372.25
2022-08-04T04:51:41.253Z,95375.84
2022-08-04T04:54:33.221Z,95377.41
2022-08-04T04:57:05.701Z,95378.25
2022-08-04T04:59:39.532Z,95367.25
2022-08-04T05:02:24.807Z,95381.47
2022-08-04T05:05:06.648Z,95375.97
2022-08-04T05:07:54.591Z,95380.72
2022-08-04T05:10:23.755Z,95378.75
2022-08-04T05:14:35.875Z,95378.81
2022-08-04T05:16:39.197Z,95389.09
2022-08-04T05:19:28.935Z,95382.06
2022-08-04T05:22:14.216Z,95384.50
2022-08-04T05:24:44.904Z,95381.41
2022-08-04T05:27:39.851Z,95377.91
2022-08-04T05:30:09.117Z,95386.25
2022-08-04T05:32:46.444Z,95372.88
2022-08-04T05:35:55.849Z,95379.22
2022-08-04T05:38:22.106Z,95380.84
2022-08-04T05:40:50.119Z,95380.88
2022-08-04T05:43:17.529Z,95376.56
2022-08-04T05:45:45.821Z,95385.66
2022-08-04T05:48:12.871Z,95379.81
2022-08-04T05:50:39.884Z,95378.66
2022-08-04T05:53:09.945Z,95381.06
2022-08-04T05:55:58.195Z,95374.75
2022-08-04T05:58:24.537Z,95372.03
2022-08-04T06:00:52.685Z,95378.75
2022-08-04T06:03:21.330Z,95381.91
2022-08-04T06:05:49.887Z,95370.09
2022-08-04T06:08:16.756Z,95380.34
2022-08-04T06:10:46.098Z,95377.25
2022-08-04T06:13:48.787Z,95381.59
2022-08-04T06:16:07.594Z,95378.81
2022-08-04T06:20:03.595Z,95372.09
2022-08-04T06:21:28.219Z,95368.53
2022-08-04T06:24:00.863Z,95374.03
2022-08-04T06:26:32.928Z,95373.25
2022-08-04T06:29:00.924Z,95373.59
2022-08-04T06:32:30.604Z,95368.41
2022-08-04T06:34:16.069Z,95364.41
2022-08-04T06:36:43.736Z,95369.09
2022-08-04T06:39:11.811Z,95364.69
2022-08-04T06:42:17.372Z,95363.44
2022-08-04T06:44:28.454Z,95369.66
2022-08-04T06:46:55.929Z,95371.16
2022-08-04T06:49:24.771Z,95373.44
2022-08-04T06:51:52.894Z,95369.81
2022-08-04T06:54:19.511Z,95378.06
2022-08-04T06:56:49.077Z,95365.31
2022-08-04T06:59:16.995Z,95368.38
2022-08-04T07:01:43.996Z,95370.00
2022-08-04T07:04:10.921Z,95363.09
2022-08-04T07:06:37.945Z,95370.47
2022-08-04T07:09:06.152Z,95371.19
2022-08-04T07:11:39.471Z,95369.13
2022-08-04T07:14:11.261Z,95366.63
2022-08-04T07:16:40.720Z,95368.50
2022-08-04T07:19:09.766Z,95358.88
2022-08-04T07:21:39.413Z,95363.16
2022-08-04T07:24:06.148Z,95361.97
2022-08-04T07:26:32.764Z,95364.91
2022-08-04T07:28:59.796Z,95360.00
2022-08-04T07:31:33.644Z,95352.38
2022-08-04T07:34:11.530Z,95362.13
2022-08-04T07:36:55.356Z,95355.97
2022-08-04T07:39:27.281Z,95353.88
2022-08-04T07:41:56.284Z,95357.28
2022-08-04T07:44:22.927Z,95368.25
2022-08-04T07:46:49.548Z,95364.53
2022-08-04T07:49:55.037Z,95364.75
2022-08-04T07:52:04.073Z,95362.66
2022-08-04T07:54:30.789Z,95357.75
2022-08-04T07:56:57.622Z,95364.75
2022-08-04T07:59:24.622Z,95354.28
2022-08-04T08:01:51.813Z,95358.50
2022-08-04T08:04:19.007Z,95352.03
2022-08-04T08:06:45.656Z,95358.25
2022-08-04T08:09:17.467Z,95352.56
2022-08-04T08:12:35.441Z,95353.56
2022-08-04T08:14:35.186Z,95358.97
2022-08-04T08:17:02.782Z,95349.28
2022-08-04T08:19:34.027Z,95351.47
2022-08-04T08:22:01.910Z,95351.69
2022-08-04T08:24:30.510Z,95355.06
2022-08-04T08:26:58.420Z,95353.25
2022-08-04T08:29:26.303Z,95355.47
2022-08-04T08:31:55.384Z,95354.84
2022-08-04T08:34:27.965Z,95348.69
2022-08-04T08:37:16.193Z,95352.88
2022-08-04T08:39:47.499Z,95359.66
2022-08-04T08:42:33.046Z,95351.25
2022-08-04T08:45:28.252Z,95356.22
2022-08-04T08:48:09.706Z,95354.38
2022-08-04T08:51:21.041Z,95348.63
2022-08-04T08:54:21.787Z,95359.16
2022-08-04T08:57:21.359Z,95356.63
2022-08-04T08:59:53.629Z,95353.94
2022-08-04T09:02:26.236Z,95351.41
2022-08-04T09:05:06.396Z,95352.41
2022-08-04T09:07:50.841Z,95359.03
2022-08-04T09:10:54.967Z,95344.53
2022-08-04T09:13:26.423Z,95353.75
2022-08-04T09:16:01.812Z,95346.50
2022-08-04T09:18:47.922Z,95337.91
2022-08-04T09:21:25.833Z,95342.94
2022-08-04T09:24:06.434Z,95344.34
2022-08-04T09:26:59.911Z,95344.00
2022-08-04T09:30:01.527Z,95341.03
2022-08-04T09:32:39.183Z,95347.84
2022-08-04T09:35:09.522Z,95344.03
2022-08-04T09:37:52.199Z,95330.41
2022-08-04T09:40:31.171Z,95335.00
2022-08-04T09:43:28.874Z,95334.00
2022-08-04T09:46:23.288Z,95336.94
2022-08-04T09:48:56.517Z,95339.03
2022-08-04T09:51:56.892Z,95338.50
2022-08-04T09:54:53.452Z,95330.66
2022-08-04T09:57:20.110Z,95331.19
2022-08-04T10:00:05.523Z,95324.59
2022-08-04T10:02:46.961Z,95330.72
2022-08-04T10:05:17.137Z,95331.66
2022-08-04T10:08:15.326Z,95328.13
2022-08-04T10:10:48.565Z,95324.19
2022-08-04T10:13:39.400Z,95323.16
2022-08-04T10:16:22.525Z,95322.88
2022-08-04T10:18:58.068Z,95325.31
2022-08-04T10:21:59.591Z,95314.84
2022-08-04T10:25:42.600Z,95313.16
2022-08-04T10:28:00.119Z,95308.84
2022-08-04T10:30:33.966Z,95309.69
2022-08-04T10:33:25.830Z,95313.81
2022-08-04T10:36:00.245Z,95313.91
2022-08-04T10:38:41.546Z,95309.81
2022-08-04T10:41:18.601Z,95313.28
2022-08-04T10:43:58.860Z,95309.06
2022-08-04T10:46:38.858Z,95305.66
2022-08-04T10:49:28.208Z,95300.69
2022-08-04T10:52:03.798Z,95303.72
2022-08-04T10:54:40.712Z,95300.56
2022-08-04T10:57:10.739Z,95301.22
2022-08-04T10:59:49.806Z,95300.28
2022-08-04T11:02:38.334Z,95294.28
2022-08-04T11:05:18.932Z,95291.34
2022-08-04T11:07:49.174Z,95279.16
2022-08-04T11:10:17.912Z,95291.34
2022-08-04T11:12:47.973Z,95288.53
2022-08-04T11:15:39.631Z,95290.09
2022-08-04T11:18:16.678Z,95283.56
2022-08-04T11:20:53.005Z,95288.09
2022-08-04T11:23:26.696Z,95281.72
2022-08-04T11:26:05.673Z,95280.16
2022-08-04T11:29:03.283Z,95277.50
2022-08-04T11:31:36.651Z,95281.09
2022-08-04T11:34:18.172Z,95275.16
2022-08-04T11:37:15.224Z,95275.31
2022-08-04T11:39:47.788Z,95282.66
2022-08-04T11:42:20.908Z,95281.72
2022-08-04T11:44:59.584Z,95278.56
2022-08-04T11:47:33.034Z,95276.94
2022-08-04T11:50:09.801Z,95272.41
2022-08-04T11:52:39.926Z,95270.22
2022-08-04T11:55:09.909Z,95270.06
2022-08-04T11:57:36.785Z,95265.97
2022-08-04T12:00:08.879Z,95267.66
2022-08-04T12:02:50.554Z,95273.00
2022-08-04T12:05:32.844Z,95264.50
2022-08-04T12:08:36.247Z,95266.38
2022-08-04T12:11:16.549Z,95258.84
2022-08-04T12:14:13.509Z,95261.78
2022-08-04T12:16:48.544Z,95258.38
2022-08-04T12:19:34.974Z,95261.97
2022-08-04T12:22:25.101Z,95255.84
2022-08-04T12:25:08.497Z,95265.00
2022-08-04T12:27:46.295Z,95253.72
2022-08-04T12:30:58.403Z,95251.41
2022-08-04T12:33:07.913Z,95252.47
2022-08-04T12:36:10.155Z,95246.00
2022-08-04T12:38:34.013Z,95242.97
2022-08-04T12:41:02.100Z,95245.78
2022-08-04T12:43:34.786Z,95244.06
2022-08-04T12:46:05.577Z,95240.00
2022-08-04T12:48:35.521Z,95243.50
2022-08-04T12:51:02.605Z,95236.25
2022-08-04T12:53:51.251Z,95240.94
2022-08-04T12:56:25.780Z,95240.94
2022-08-04T12:58:54.170Z,95235.88
2022-08-04T13:02:10.661Z,95234.34
2022-08-04T13:04:28.950Z,95232.00
2022-08-04T13:07:10.924Z,95245.22
2022-08-04T13:09:38.234Z,95232.97
2022-08-04T13:12:12.377Z,95232.97
2022-08-04T13:14:41.909Z,95224.91
2022-08-04T13:17:08.667Z,95221.91
2022-08-04T13:19:41.183Z,95226.28
2022-08-04T13:22:09.285Z,95219.97
2022-08-04T13:24:56.487Z,95231.31
2022-08-04T13:27:26.248Z,95225.44
2022-08-04T13:29:58.719Z,95226.69
2022-08-04T13:32:29.971Z,95224.06
2022-08-04T13:34:59.870Z,95211.50
2022-08-04T13:37:34.466Z,95218.41
2022-08-04T13:40:04.365Z,95217.13
2022-08-04T13:42:33.627Z,95212.28
2022-08-04T13:45:06.363Z,95209.56
2022-08-04T13:47:35.742Z,95205.28
2022-08-04T13:50:13.630Z,95202.88
2022-08-04T13:52:42.187Z,95205.66
2022-08-04T13:55:23.668Z,95202.19
2022-08-04T13:57:55.691Z,95208.88
2022-08-04T14:00:29.195Z,95198.34
2022-08-04T14:03:23.863Z,95203.22
2022-08-04T14:06:13.309Z,95197.19
2022-08-04T14:08:55.222Z,95204.00
2022-08-04T14:12:06.164Z,95196.09
2022-08-04T14:14:27.362Z,95193.38
2022-08-04T14:17:19.880Z,95191.41
2022-08-04T14:19:58.839Z,95186.41
2022-08-04T14:22:28.452Z,95193.78
2022-08-04T14:25:09.018Z,95192.09
2022-08-04T14:27:45.278Z,95191.00
2022-08-04T14:30:26.656Z,95178.00
2022-08-04T14:34:02.229Z,95170.41
2022-08-04T14:35:57.582Z,95173.09
2022-08-04T14:38:24.241Z,95170.69
2022-08-04T14:40:59.995Z,95175.69
2022-08-04T14:43:29.388Z,95170.44
2022-08-04T14:46:04.484Z,95167.75
2022-08-04T14:48:30.988Z,95164.81
2022-08-04T14:50:58.069Z,95171.16
2022-08-04T14:53:26.084Z,95168.44
2022-08-04T14:55:56.438Z,95169.31
2022-08-04T14:58:34.749Z,95172.50
2022-08-04T15:01:10.308Z,95168.38
2022-08-04T15:03:48.337Z,95171.81
2022-08-04T15:06:22.601Z,95166.97
2022-08-04T15:08:55.334Z,95162.13
2022-08-04T15:11:24.265Z,95168.09
2022-08-04T15:13:52.867Z,95161.88
2022-08-04T15:16:21.132Z,95161.63
2022-08-04T15:18:49.217Z,95158.03
2022-08-04T15:21:17.276Z,95161.41
2022-08-04T15:23:43.978Z,95159.81
2022-08-04T15:26:18.773Z,95157.78
2022-08-04T15:28:51.461Z,95163.72
2022-08-04T15:32:06.198Z,95149.25
2022-08-04T15:34:08.734Z,95158.75
2022-08-04T15:36:56.930Z,95158.72
2022-08-04T15:39:48.896Z,95154.03
2022-08-04T15:42:24.303Z,95149.38
2022-08-04T15:44:51.090Z,95152.41
2022-08-04T15:47:18.234Z,95136.88
2022-08-04T15:49:44.996Z,95139.50
2022-08-04T15:52:14.144Z,95136.53
2022-08-04T15:54:52.823Z,95132.38
2022-08-04T15:57:58.964Z,95126.16
2022-08-04T16:00:25.655Z,95128.13
2022-08-04T16:02:52.269Z,95111.53
2022-08-04T16:05:30.908Z,95119.78
2022-08-04T16:07:59.544Z,95122.88
2022-08-04T16:10:32.123Z,95128.06
2022-08-04T16:13:04.885Z,95116.47
2022-08-04T16:15:37.864Z,95120.06
2022-08-04T16:18:04.890Z,95116.16
2022-08-04T16:20:33.315Z,95116.94
2022-08-04T16:23:53.519Z,95120.88
2022-08-04T16:26:45.590Z,95107.16
2022-08-04T16:29:27.638Z,95111.50
2022-08-04T16:32:06.523Z,95114.28
2022-08-04T16:34:48.155Z,95116.06
2022-08-04T16:37:18.513Z,95112.06
2022-08-04T16:39:51.337Z,95114.56
2022-08-04T16:42:30.308Z,95117.44
2022-08-04T16:45:20.563Z,95112.91
2022-08-04T16:47:47.147Z,95108.19
2022-08-04T16:50:14.718Z,95104.47
2022-08-04T16:52:48.719Z,95109.28
2022-08-04T16:55:18.708Z,95112.47
2022-08-04T16:57:57.260Z,95116.31
2022-08-04T17:00:35.591Z,95108.59
2022-08-04T17:03:07.092Z,95107.38
2022-08-04T17:05:39.426Z,95107.81
2022-08-04T17:10:56.175Z,95104.81
2022-08-04T17:14:00.990Z,95103.25
2022-08-04T17:16:18.422Z,95105.03
2022-08-04T17:18:48.517Z,95101.25
2022-08-04T17:21:25.371Z,95096.69
2022-08-04T17:24:14.884Z,95097.88
2022-08-04T17:26:54.543Z,95100.78
2022-08-04T17:29:24.310Z,95102.91
2022-08-04T17:32:19.844Z,95107.69
2022-08-04T17:34:59.070Z,95104.13
2022-08-04T17:37:39.330Z,95100.00
2022-08-04T17:40:10.183Z,95099.50
2022-08-04T17:42:37.491Z,95107.38
2022-08-04T17:45:49.038Z,95100.72
2022-08-04T17:47:55.643Z,95099.25
2022-08-04T17:50:30.716Z,95100.66
2022-08-04T17:53:12.315Z,95096.41
2022-08-04T17:55:47.295Z,95101.97
2022-08-04T17:58:22.200Z,95103.47
2022-08-04T18:01:16.313Z,95105.34
2022-08-04T18:03:44.981Z,95101.72
2022-08-04T18:06:20.975Z,95095.53
2022-08-04T18:08:57.491Z,95110.22
2022-08-04T18:11:29.507Z,95105.66
2022-08-04T18:14:09.589Z,95103.28
2022-08-04T18:16:42.846Z,95106.28
2022-08-04T18:19:19.108Z,95111.28
2022-08-04T18:21:59.379Z,95111.56
2022-08-04T18:24:36.161Z,95118.47
2022-08-04T18:27:22.442Z,95117.03
2022-08-04T18:30:38.533Z,95110.22
2022-08-04T18:32:37.213Z,95113.75
2022-08-04T18:35:18.481Z,95108.91
2022-08-04T18:38:05.397Z,95116.94
2022-08-04T18:40:39.187Z,95117.44
2022-08-04T18:43:18.301Z,95128.25
2022-08-04T18:45:55.909Z,95134.16
2022-08-04T18:48:23.113Z,95137.81
2022-08-04T18:51:22.613Z,95133.44
2022-08-04T18:53:58.670Z,95135.50
2022-08-04T18:56:29.605Z,95142.94
2022-08-04T18:58:59.977Z,95147.88
2022-08-04T19:01:30.069Z,95138.75
2022-08-04T19:04:32.945Z,95142.56
2022-08-04T19:07:01.075Z,95146.66
2022-08-04T19:09:51.899Z,95141.81
2022-08-04T19:12:27.090Z,95152.91
2022-08-04T19:14:58.378Z,95154.94
2022-08-04T19:17:56.807Z,95157.59
2022-08-04T19:20:24.158Z,95155.50
2022-08-04T19:24:23.431Z,95163.00
2022-08-04T19:25:58.477Z,95163.72
2022-08-04T19:28:28.017Z,95174.72
2022-08-04T19:30:57.498Z,95175.13
2022-08-04T19:33:25.157Z,95175.66
2022-08-04T19:35:52.405Z,95177.69
2022-08-04T19:38:19.076Z,95168.56
2022-08-04T19:43:32.729Z,95175.88
2022-08-04T19:45:59.434Z,95181.09
2022-08-04T19:48:30.329Z,95182.28
2022-08-04T19:50:57.212Z,95176.25
2022-08-04T19:53:37.142Z,95187.84
2022-08-04T19:56:04.842Z,95192.25
2022-08-04T19:58:31.376Z,95193.41
2022-08-04T20:00:57.930Z,95188.94
2022-08-04T20:04:09.891Z,95193.19
2022-08-04T20:06:11.012Z,95191.53
2022-08-04T20:08:37.601Z,95192.22
2022-08-04T20:11:14.713Z,95194.91
2022-08-04T20:13:42.631Z,95192.78
2022-08-04T20:19:00.751Z,95188.09
2022-08-04T20:21:55.641Z,95187.97
2022-08-04T20:24:39.032Z,95191.41
2022-08-04T20:27:07.813Z,95187.28
2022-08-04T20:29:40.737Z,95189.84
2022-08-04T20:32:09.969Z,95188.06
2022-08-04T20:34:37.655Z,95189.03
2022-08-04T20:37:07.001Z,95193.16
2022-08-04T20:39:37.172Z,95190.59
2022-08-04T20:42:03.858Z,95189.56
2022-08-04T20:44:30.516Z,95185.72
2022-08-04T20:46:57.327Z,95183.47
2022-08-04T20:49:35.094Z,95186.81
2022-08-04T20:52:12.105Z,95183.00
2022-08-04T20:54:42.439Z,95173.25
2022-08-04T20:57:16.683Z,95176.56
2022-08-04T20:59:43.605Z,95174.00
2022-08-04T21:02:17.143Z,95187.69
2022-08-04T21:04:48.502Z,95181.06
2022-08-04T21:07:16.877Z,95186.41
2022-08-04T21:09:50.782Z,95182.13
2022-08-04T21:12:27.792Z,95190.59
2022-08-04T21:14:57.356Z,95187.97
2022-08-04T21:17:59.559Z,95182.16
2022-08-04T21:20:12.989Z,95179.88
2022-08-04T21:22:40.929Z,95189.59
2022-08-04T21:25:16.319Z,95188.88
2022-08-04T21:27:43.715Z,95186.19
2022-08-04T21:30:25.204Z,95188.72
2022-08-04T21:32:53.397Z,95191.59
2022-08-04T21:35:36.729Z,95189.66
2022-08-04T21:38:17.256Z,95186.97
2022-08-04T21:40:55.896Z,95191.06
2022-08-04T21:43:23.677Z,95191.09
2022-08-04T21:45:54.636Z,95193.13
2022-08-04T21:48:21.385Z,95194.84
2022-08-04T21:50:50.273Z,95196.16
2022-08-04T21:53:19.862Z,95191.00
2022-08-04T21:56:05.146Z,95188.41
2022-08-04T21:58:34.323Z,95185.34
2022-08-04T22:01:05.934Z,95193.00
2022-08-04T22:03:53.243Z,95193.06
2022-08-04T22:06:28.371Z,95187.59
2022-08-04T22:08:56.441Z,95187.66
2022-08-04T22:11:48.328Z,95195.31
2022-08-04T22:14:16.014Z,95185.47
2022-08-04T22:16:43.655Z,95184.34
2022-08-04T22:19:11.603Z,95187.22
2022-08-04T22:21:45.306Z,95191.22
2022-08-04T22:24:14.262Z,95188.91
2022-08-04T22:26:41.587Z,95186.44
2022-08-04T22:29:14.515Z,95182.69
2022-08-04T22:31:55.707Z,95184.72
2022-08-04T22:34:24.419Z,95183.56
2022-08-04T22:36:51.030Z,95183.63
2022-08-04T22:39:20.408Z,95178.56
2022-08-04T22:42:03.865Z,95175.44
2022-08-04T22:44:33.132Z,95174.72
2022-08-04T22:47:00.914Z,95176.38
2022-08-04T22:49:31.961Z,95179.66
2022-08-04T22:51:59.879Z,95179.72
2022-08-04T22:54:36.195Z,95176.22
2022-08-04T22:57:02.690Z,95171.50
2022-08-04T22:59:29.279Z,95173.56
2022-08-04T23:02:00.845Z,95175.22
2022-08-04T23:04:30.068Z,95173.72
2022-08-04T23:06:57.075Z,95171.03
2022-08-04T23:09:49.116Z,95174.66
2022-08-04T23:12:27.665Z,95172.31
2022-08-04T23:14:57.964Z,95177.97
2022-08-04T23:17:27.818Z,95178.81
2022-08-04T23:19:57.677Z,95180.09
2022-08-04T23:22:37.062Z,95184.13
2022-08-04T23:25:15.947Z,95179.06
2022-08-04T23:27:50.654Z,95182.34
2022-08-04T23:30:20.597Z,95174.84
2022-08-04T23:32:48.710Z,95176.13
2022-08-04T23:35:15.446Z,95167.84
2022-08-04T23:37:56.054Z,95161.56
2022-08-04T23:40:32.468Z,95171.59
2022-08-04T23:43:01.064Z,95168.09
2022-08-04T23:46:04.266Z,95172.16
2022-08-04T23:48:19.302Z,95162.28
2022-08-04T23:50:48.296Z,95162.34
2022-08-04T23:53:18.730Z,95167.94
2022-08-04T23:55:49.214Z,95156.47
2022-08-04T23:58:18.980Z,95163.28
